Wanilla, Mississippi
Current Conditions -  °F | °C
As of 11:35 AM on Thursday 23 Oct 2014 (Local Time) from K1R7 Reporting Station
Clear Clear  
Wind Chill: 64°   Ceiling: Unl
Heat Index: 64°   Visibility: 10mi
Dew Point: 43°   Wind: 6mph
Humidity: 45%   Direction: 90°E
Pressure: 30.16"   Gusts: NA
Location:  31.4742°N, 90.119°W
Report Text: K1R7 231635Z AUTO 09005KT 10SM CLR 18/06 A3016 RMK AO2
Loading
Personal Weather Stations






























Interactive Weather Map New forecast layout! Learn more

10-Day Weather Forecast

Advertisements
Track Severe Weather on mobile